sensor_id;sensor_type;location;lat;lon;timestamp;pressure;altitude;pressure_sealevel;temperature;humidity
71344;BME280;59146;43.850;25.948;2024-02-04T00:00:29;101364.06;;;5.23;94.11
71344;BME280;59146;43.850;25.948;2024-02-04T00:02:54;101420.22;;;5.56;94.45
71344;BME280;59146;43.850;25.948;2024-02-04T00:05:20;101347.72;;;5.21;94.16
71344;BME280;59146;43.850;25.948;2024-02-04T00:07:46;101343.41;;;5.20;94.37
71344;BME280;59146;43.850;25.948;2024-02-04T00:10:11;101422.44;;;5.70;94.38
71344;BME280;59146;43.850;25.948;2024-02-04T00:12:37;101425.25;;;5.62;94.62
71344;BME280;59146;43.850;25.948;2024-02-04T00:15:04;101386.81;;;5.46;94.98
71344;BME280;59146;43.850;25.948;2024-02-04T00:17:30;101387.66;;;5.46;95.15
71344;BME280;59146;43.850;25.948;2024-02-04T00:20:01;101429.13;;;5.79;94.62
71344;BME280;59146;43.850;25.948;2024-02-04T00:22:27;101430.75;;;5.83;94.38
71344;BME280;59146;43.850;25.948;2024-02-04T00:24:52;101351.69;;;5.34;94.65
71344;BME280;59146;43.850;25.948;2024-02-04T00:27:18;101416.16;;;5.80;94.88
71344;BME280;59146;43.850;25.948;2024-02-04T00:29:43;101318.00;;;5.34;94.59
71344;BME280;59146;43.850;25.948;2024-02-04T00:32:08;101348.22;;;5.35;94.97
71344;BME280;59146;43.850;25.948;2024-02-04T00:34:34;101337.47;;;5.49;95.06
71344;BME280;59146;43.850;25.948;2024-02-04T00:36:59;101337.44;;;5.50;95.28
71344;BME280;59146;43.850;25.948;2024-02-04T00:39:25;101391.03;;;5.82;94.85
71344;BME280;59146;43.850;25.948;2024-02-04T00:41:51;101375.88;;;5.67;95.44
71344;BME280;59146;43.850;25.948;2024-02-04T00:44:16;101384.84;;;5.88;95.48
71344;BME280;59146;43.850;25.948;2024-02-04T00:46:41;101376.16;;;5.89;95.31
71344;BME280;59146;43.850;25.948;2024-02-04T00:49:07;101323.13;;;5.70;94.73
71344;BME280;59146;43.850;25.948;2024-02-04T00:51:32;101295.72;;;5.59;95.19
71344;BME280;59146;43.850;25.948;2024-02-04T00:53:58;101352.94;;;6.15;94.57
71344;BME280;59146;43.850;25.948;2024-02-04T00:56:23;101317.19;;;5.97;93.89
71344;BME280;59146;43.850;25.948;2024-02-04T00:58:49;101288.09;;;5.86;94.71
71344;BME280;59146;43.850;25.948;2024-02-04T01:01:14;101343.75;;;6.34;93.73
71344;BME280;59146;43.850;25.948;2024-02-04T01:03:40;101323.91;;;6.31;92.91
71344;BME280;59146;43.850;25.948;2024-02-04T01:06:05;101295.88;;;6.15;92.66
71344;BME280;59146;43.850;25.948;2024-02-04T01:08:31;101295.16;;;6.10;93.31
71344;BME280;59146;43.850;25.948;2024-02-04T01:10:56;101367.72;;;6.42;93.26
71344;BME280;59146;43.850;25.948;2024-02-04T01:13:21;101290.28;;;5.99;93.25
71344;BME280;59146;43.850;25.948;2024-02-04T01:15:47;101287.66;;;6.01;92.97
71344;BME280;59146;43.850;25.948;2024-02-04T01:18:12;101361.28;;;6.54;92.42
71344;BME280;59146;43.850;25.948;2024-02-04T01:20:38;101324.47;;;6.41;92.17
71344;BME280;59146;43.850;25.948;2024-02-04T01:23:03;101338.78;;;6.54;91.78
71344;BME280;59146;43.850;25.948;2024-02-04T01:25:29;101311.69;;;6.35;91.59
71344;BME280;59146;43.850;25.948;2024-02-04T01:27:54;101282.59;;;6.25;91.20
71344;BME280;59146;43.850;25.948;2024-02-04T01:30:19;101257.50;;;6.26;90.93
71344;BME280;59146;43.850;25.948;2024-02-04T01:32:45;101310.00;;;6.62;90.41
71344;BME280;59146;43.850;25.948;2024-02-04T01:35:11;101296.25;;;6.58;90.30
71344;BME280;59146;43.850;25.948;2024-02-04T01:37:36;101270.97;;;6.37;90.54
71344;BME280;59146;43.850;25.948;2024-02-04T01:40:02;101275.94;;;6.45;90.59
71344;BME280;59146;43.850;25.948;2024-02-04T01:42:27;101274.16;;;6.47;89.99
71344;BME280;59146;43.850;25.948;2024-02-04T01:44:53;101233.16;;;6.30;89.92
71344;BME280;59146;43.850;25.948;2024-02-04T01:47:18;101233.34;;;6.24;90.34
71344;BME280;59146;43.850;25.948;2024-02-04T01:49:45;101285.84;;;6.60;89.90
71344;BME280;59146;43.850;25.948;2024-02-04T01:52:11;101268.34;;;6.38;89.95
71344;BME280;59146;43.850;25.948;2024-02-04T01:54:39;101303.63;;;6.72;90.22
71344;BME280;59146;43.850;25.948;2024-02-04T01:57:06;101237.22;;;6.38;89.91
71344;BME280;59146;43.850;25.948;2024-02-04T01:59:32;101255.72;;;6.54;89.63
71344;BME280;59146;43.850;25.948;2024-02-04T02:01:59;101230.75;;;6.50;89.93
71344;BME280;59146;43.850;25.948;2024-02-04T02:04:25;101299.91;;;7.05;89.25
71344;BME280;59146;43.850;25.948;2024-02-04T02:06:54;101259.34;;;6.76;88.50
71344;BME280;59146;43.850;25.948;2024-02-04T02:09:20;101289.03;;;6.94;88.81
71344;BME280;59146;43.850;25.948;2024-02-04T02:11:48;101296.47;;;7.04;88.22
71344;BME280;59146;43.850;25.948;2024-02-04T02:14:19;101246.16;;;6.82;87.26
71344;BME280;59146;43.850;25.948;2024-02-04T02:16:47;101199.81;;;6.44;88.33
71344;BME280;59146;43.850;25.948;2024-02-04T02:22:02;101301.44;;;7.10;88.55
71344;BME280;59146;43.850;25.948;2024-02-04T02:26:57;101233.88;;;6.61;88.98
71344;BME280;59146;43.850;25.948;2024-02-04T02:29:24;101247.13;;;6.52;89.65
71344;BME280;59146;43.850;25.948;2024-02-04T02:31:49;101278.19;;;6.81;89.39
71344;BME280;59146;43.850;25.948;2024-02-04T02:34:15;101295.38;;;6.85;90.02
71344;BME280;59146;43.850;25.948;2024-02-04T02:36:49;101268.22;;;6.69;90.05
71344;BME280;59146;43.850;25.948;2024-02-04T02:39:20;101233.63;;;6.43;90.49
71344;BME280;59146;43.850;25.948;2024-02-04T02:41:49;101306.72;;;6.83;90.78
71344;BME280;59146;43.850;25.948;2024-02-04T02:44:18;101290.44;;;6.78;91.10
71344;BME280;59146;43.850;25.948;2024-02-04T02:46:46;101263.09;;;6.66;90.90
71344;BME280;59146;43.850;25.948;2024-02-04T02:49:12;101228.97;;;6.52;90.75
71344;BME280;59146;43.850;25.948;2024-02-04T02:51:37;101203.31;;;6.43;90.43
71344;BME280;59146;43.850;25.948;2024-02-04T02:54:03;101263.69;;;6.76;90.95
71344;BME280;59146;43.850;25.948;2024-02-04T02:56:29;101160.13;;;6.14;91.17
71344;BME280;59146;43.850;25.948;2024-02-04T02:58:54;101236.41;;;6.63;90.22
71344;BME280;59146;43.850;25.948;2024-02-04T03:01:20;101278.09;;;6.84;90.55
71344;BME280;59146;43.850;25.948;2024-02-04T03:03:45;101259.34;;;6.76;90.94
71344;BME280;59146;43.850;25.948;2024-02-04T03:06:10;101245.28;;;6.56;91.30
71344;BME280;59146;43.850;25.948;2024-02-04T03:08:36;101131.78;;;5.82;91.52
71344;BME280;59146;43.850;25.948;2024-02-04T03:11:01;101201.25;;;6.26;91.44
71344;BME280;59146;43.850;25.948;2024-02-04T03:13:27;101288.28;;;6.64;92.57
71344;BME280;59146;43.850;25.948;2024-02-04T03:15:52;101266.44;;;6.43;92.67
71344;BME280;59146;43.850;25.948;2024-02-04T03:18:18;101218.19;;;6.10;93.23
71344;BME280;59146;43.850;25.948;2024-02-04T03:20:43;101240.34;;;6.20;93.82
71344;BME280;59146;43.850;25.948;2024-02-04T03:23:08;101237.06;;;6.15;93.17
71344;BME280;59146;43.850;25.948;2024-02-04T03:25:34;101257.19;;;6.35;93.54
71344;BME280;59146;43.850;25.948;2024-02-04T03:27:59;101250.06;;;6.41;93.22
71344;BME280;59146;43.850;25.948;2024-02-04T03:30:25;101266.44;;;6.43;92.66
71344;BME280;59146;43.850;25.948;2024-02-04T03:32:50;101275.63;;;6.54;93.04
71344;BME280;59146;43.850;25.948;2024-02-04T03:35:15;101162.59;;;5.93;92.88
71344;BME280;59146;43.850;25.948;2024-02-04T03:37:41;101264.72;;;6.70;92.23
71344;BME280;59146;43.850;25.948;2024-02-04T03:40:07;101246.59;;;6.69;91.58
71344;BME280;59146;43.850;25.948;2024-02-04T03:42:32;101174.69;;;6.20;92.09
71344;BME280;59146;43.850;25.948;2024-02-04T03:44:58;101262.31;;;6.64;92.66
71344;BME280;59146;43.850;25.948;2024-02-04T03:47:23;101210.75;;;6.54;92.30
71344;BME280;59146;43.850;25.948;2024-02-04T03:49:48;101191.25;;;6.42;91.34
71344;BME280;59146;43.850;25.948;2024-02-04T03:52:14;101223.63;;;6.57;91.66
71344;BME280;59146;43.850;25.948;2024-02-04T03:54:39;101198.22;;;6.40;91.58
71344;BME280;59146;43.850;25.948;2024-02-04T03:57:05;101174.56;;;6.23;91.78
71344;BME280;59146;43.850;25.948;2024-02-04T03:59:30;101215.53;;;6.39;92.41
71344;BME280;59146;43.850;25.948;2024-02-04T04:01:55;101194.19;;;6.31;92.12
71344;BME280;59146;43.850;25.948;2024-02-04T04:04:23;101218.13;;;6.39;92.71
71344;BME280;59146;43.850;25.948;2024-02-04T04:06:48;101235.28;;;6.45;92.99
71344;BME280;59146;43.850;25.948;2024-02-04T04:09:13;101256.63;;;6.53;92.91
71344;BME280;59146;43.850;25.948;2024-02-04T04:11:39;101257.78;;;6.45;93.52
71344;BME280;59146;43.850;25.948;2024-02-04T04:14:04;101250.66;;;6.51;93.03
71344;BME280;59146;43.850;25.948;2024-02-04T04:16:30;101113.94;;;5.72;92.97
71344;BME280;59146;43.850;25.948;2024-02-04T04:18:55;101137.53;;;5.92;93.21
71344;BME280;59146;43.850;25.948;2024-02-04T04:21:21;101149.41;;;5.99;93.62
71344;BME280;59146;43.850;25.948;2024-02-04T04:23:46;101147.72;;;5.98;93.74
71344;BME280;59146;43.850;25.948;2024-02-04T04:26:12;101256.53;;;6.56;93.44
71344;BME280;59146;43.850;25.948;2024-02-04T04:28:37;101212.47;;;6.27;93.16
71344;BME280;59146;43.850;25.948;2024-02-04T04:31:02;101185.53;;;6.05;93.61
71344;BME280;59146;43.850;25.948;2024-02-04T04:33:29;101192.19;;;5.86;94.60
71344;BME280;59146;43.850;25.948;2024-02-04T04:35:55;101254.84;;;6.27;94.54
71344;BME280;59146;43.850;25.948;2024-02-04T04:38:20;101225.50;;;5.98;94.64
71344;BME280;59146;43.850;25.948;2024-02-04T04:40:45;101263.34;;;6.05;94.47
71344;BME280;59146;43.850;25.948;2024-02-04T04:43:11;101284.91;;;6.07;95.10
71344;BME280;59146;43.850;25.948;2024-02-04T04:45:36;101296.16;;;6.06;95.31
71344;BME280;59146;43.850;25.948;2024-02-04T04:48:02;101322.00;;;6.09;95.94
71344;BME280;59146;43.850;25.948;2024-02-04T04:50:27;101289.72;;;5.90;95.91
71344;BME280;59146;43.850;25.948;2024-02-04T04:52:53;101282.00;;;5.87;96.03
71344;BME280;59146;43.850;25.948;2024-02-04T04:55:19;101287.47;;;5.76;97.02
71344;BME280;59146;43.850;25.948;2024-02-04T04:57:44;101296.75;;;5.85;97.24
71344;BME280;59146;43.850;25.948;2024-02-04T05:00:10;101196.53;;;5.25;97.40
71344;BME280;59146;43.850;25.948;2024-02-04T05:02:37;101253.28;;;5.63;97.28
71344;BME280;59146;43.850;25.948;2024-02-04T05:05:03;101262.69;;;5.68;97.48
71344;BME280;59146;43.850;25.948;2024-02-04T05:07:28;101237.09;;;5.55;97.88
71344;BME280;59146;43.850;25.948;2024-02-04T05:09:54;101184.38;;;5.27;96.84
71344;BME280;59146;43.850;25.948;2024-02-04T05:12:19;101234.97;;;5.39;97.59
71344;BME280;59146;43.850;25.948;2024-02-04T05:14:45;101265.44;;;5.61;97.78
71344;BME280;59146;43.850;25.948;2024-02-04T05:17:10;101259.91;;;5.43;98.34
71344;BME280;59146;43.850;25.948;2024-02-04T05:19:36;101292.13;;;5.65;99.11
71344;BME280;59146;43.850;25.948;2024-02-04T05:22:02;101329.63;;;5.83;98.68
71344;BME280;59146;43.850;25.948;2024-02-04T05:24:28;101254.13;;;5.33;99.34
71344;BME280;59146;43.850;25.948;2024-02-04T05:26:53;101299.81;;;5.68;99.90
71344;BME280;59146;43.850;25.948;2024-02-04T05:29:19;101253.16;;;5.37;99.93
71344;BME280;59146;43.850;25.948;2024-02-04T05:31:44;101313.50;;;5.73;100.00
71344;BME280;59146;43.850;25.948;2024-02-04T05:34:10;101345.66;;;5.98;98.99
71344;BME280;59146;43.850;25.948;2024-02-04T05:36:36;101272.66;;;5.50;99.59
71344;BME280;59146;43.850;25.948;2024-02-04T05:39:16;101283.09;;;5.47;99.56
71344;BME280;59146;43.850;25.948;2024-02-04T05:41:42;101260.47;;;5.23;100.00
71344;BME280;59146;43.850;25.948;2024-02-04T05:44:08;101310.91;;;5.42;100.00
71344;BME280;59146;43.850;25.948;2024-02-04T05:46:37;101304.88;;;5.40;100.00
71344;BME280;59146;43.850;25.948;2024-02-04T05:49:03;101323.22;;;5.65;100.00
71344;BME280;59146;43.850;25.948;2024-02-04T05:51:30;101262.78;;;5.32;100.00
71344;BME280;59146;43.850;25.948;2024-02-04T05:53:55;101252.72;;;5.22;100.00
71344;BME280;59146;43.850;25.948;2024-02-04T05:56:21;101282.59;;;5.35;100.00
71344;BME280;59146;43.850;25.948;2024-02-04T05:58:47;101287.59;;;5.41;100.00
71344;BME280;59146;43.850;25.948;2024-02-04T06:01:12;101303.66;;;5.55;100.00
71344;BME280;59146;43.850;25.948;2024-02-04T06:03:37;101235.94;;;5.04;100.00
71344;BME280;59146;43.850;25.948;2024-02-04T06:06:03;101296.00;;;5.49;100.00
71344;BME280;59146;43.850;25.948;2024-02-04T06:08:29;101274.81;;;5.35;100.00
71344;BME280;59146;43.850;25.948;2024-02-04T06:10:55;101288.28;;;5.47;100.00
71344;BME280;59146;43.850;25.948;2024-02-04T06:13:20;101327.25;;;5.75;100.00
71344;BME280;59146;43.850;25.948;2024-02-04T06:15:46;101200.91;;;4.91;100.00
71344;BME280;59146;43.850;25.948;2024-02-04T06:18:11;101260.13;;;5.35;100.00
71344;BME280;59146;43.850;25.948;2024-02-04T06:20:36;101297.34;;;5.63;100.00
71344;BME280;59146;43.850;25.948;2024-02-04T06:23:02;101325.34;;;5.82;100.00
71344;BME280;59146;43.850;25.948;2024-02-04T06:25:27;101290.47;;;5.62;100.00
71344;BME280;59146;43.850;25.948;2024-02-04T06:27:53;101325.25;;;5.86;99.69
71344;BME280;59146;43.850;25.948;2024-02-04T06:30:18;101336.78;;;5.75;100.00
71344;BME280;59146;43.850;25.948;2024-02-04T06:32:43;101266.84;;;5.42;100.00
71344;BME280;59146;43.850;25.948;2024-02-04T06:35:09;101276.13;;;5.49;100.00
71344;BME280;59146;43.850;25.948;2024-02-04T06:37:34;101278.50;;;5.58;100.00
71344;BME280;59146;43.850;25.948;2024-02-04T06:40:00;101269.84;;;5.58;100.00
71344;BME280;59146;43.850;25.948;2024-02-04T06:42:25;101237.78;;;5.31;100.00
71344;BME280;59146;43.850;25.948;2024-02-04T06:44:50;101321.00;;;5.84;99.79
71344;BME280;59146;43.850;25.948;2024-02-04T06:47:16;101249.06;;;5.59;99.10
71344;BME280;59146;43.850;25.948;2024-02-04T06:49:44;101277.78;;;5.83;98.80
71344;BME280;59146;43.850;25.948;2024-02-04T06:52:13;101369.56;;;6.38;97.82
71344;BME280;59146;43.850;25.948;2024-02-04T06:54:38;101310.41;;;5.91;98.59
71344;BME280;59146;43.850;25.948;2024-02-04T06:57:04;101350.66;;;6.04;99.37
71344;BME280;59146;43.850;25.948;2024-02-04T06:59:29;101359.75;;;6.19;99.18
71344;BME280;59146;43.850;25.948;2024-02-04T07:01:55;101341.22;;;6.02;98.33
71344;BME280;59146;43.850;25.948;2024-02-04T07:04:20;101390.34;;;6.37;97.86
71344;BME280;59146;43.850;25.948;2024-02-04T07:06:50;101311.25;;;5.92;98.17
71344;BME280;59146;43.850;25.948;2024-02-04T07:09:16;101407.03;;;6.28;98.64
71344;BME280;59146;43.850;25.948;2024-02-04T07:11:41;101407.88;;;6.29;98.82
71344;BME280;59146;43.850;25.948;2024-02-04T07:14:07;101406.63;;;6.42;98.06
71344;BME280;59146;43.850;25.948;2024-02-04T07:16:33;101393.41;;;6.22;98.08
71344;BME280;59146;43.850;25.948;2024-02-04T07:18:59;101348.31;;;5.97;98.27
71344;BME280;59146;43.850;25.948;2024-02-04T07:21:24;101338.06;;;5.91;99.22
71344;BME280;59146;43.850;25.948;2024-02-04T07:23:50;101381.13;;;6.27;98.97
71344;BME280;59146;43.850;25.948;2024-02-04T07:26:15;101321.63;;;5.92;98.98
71344;BME280;59146;43.850;25.948;2024-02-04T07:28:41;101296.78;;;5.83;99.41
71344;BME280;59146;43.850;25.948;2024-02-04T07:31:07;101342.31;;;6.24;98.69
71344;BME280;59146;43.850;25.948;2024-02-04T07:33:32;101363.06;;;6.53;96.95
71344;BME280;59146;43.850;25.948;2024-02-04T07:35:58;101349.81;;;6.33;97.49
71344;BME280;59146;43.850;25.948;2024-02-04T07:38:23;101382.78;;;6.59;98.13
71344;BME280;59146;43.850;25.948;2024-02-04T07:40:48;101348.56;;;6.46;97.00
71344;BME280;59146;43.850;25.948;2024-02-04T07:43:14;101381.97;;;6.84;96.22
71344;BME280;59146;43.850;25.948;2024-02-04T07:45:39;101391.47;;;6.85;96.84
71344;BME280;59146;43.850;25.948;2024-02-04T07:48:05;101325.41;;;6.66;96.32
71344;BME280;59146;43.850;25.948;2024-02-04T07:50:30;101307.91;;;6.73;95.70
71344;BME280;59146;43.850;25.948;2024-02-04T07:52:56;101314.00;;;6.72;95.91
71344;BME280;59146;43.850;25.948;2024-02-04T07:55:21;101364.94;;;7.02;96.50
71344;BME280;59146;43.850;25.948;2024-02-04T07:57:47;101278.50;;;6.98;95.64
71344;BME280;59146;43.850;25.948;2024-02-04T08:00:12;101300.88;;;7.27;93.58
71344;BME280;59146;43.850;25.948;2024-02-04T08:02:38;101282.03;;;7.20;93.68
71344;BME280;59146;43.850;25.948;2024-02-04T08:05:04;101340.59;;;7.80;92.47
71344;BME280;59146;43.850;25.948;2024-02-04T08:07:30;101348.66;;;7.97;92.52
71344;BME280;59146;43.850;25.948;2024-02-04T08:09:55;101258.06;;;7.62;91.43
71344;BME280;59146;43.850;25.948;2024-02-04T08:12:21;101295.50;;;8.04;91.32
71344;BME280;59146;43.850;25.948;2024-02-04T08:14:46;101253.97;;;8.01;89.80
71344;BME280;59146;43.850;25.948;2024-02-04T08:17:12;101310.09;;;8.31;90.28
71344;BME280;59146;43.850;25.948;2024-02-04T08:19:37;101322.50;;;8.46;89.67
71344;BME280;59146;43.850;25.948;2024-02-04T08:22:03;101305.13;;;8.24;89.72
71344;BME280;59146;43.850;25.948;2024-02-04T08:24:29;101349.44;;;8.22;91.35
71344;BME280;59146;43.850;25.948;2024-02-04T08:26:57;101325.22;;;8.20;90.74
71344;BME280;59146;43.850;25.948;2024-02-04T08:29:23;101312.84;;;8.50;89.51
71344;BME280;59146;43.850;25.948;2024-02-04T08:31:49;101317.91;;;8.31;90.04
71344;BME280;59146;43.850;25.948;2024-02-04T08:34:14;101294.81;;;7.99;90.97
71344;BME280;59146;43.850;25.948;2024-02-04T08:36:39;101309.56;;;8.22;91.11
71344;BME280;59146;43.850;25.948;2024-02-04T08:39:05;101368.22;;;8.53;91.46
71344;BME280;59146;43.850;25.948;2024-02-04T08:41:30;101360.56;;;8.50;92.18
71344;BME280;59146;43.850;25.948;2024-02-04T08:43:56;101338.13;;;8.46;92.17
71344;BME280;59146;43.850;25.948;2024-02-04T08:46:21;101283.69;;;8.17;92.09
71344;BME280;59146;43.850;25.948;2024-02-04T08:48:46;101283.53;;;7.98;93.62
71344;BME280;59146;43.850;25.948;2024-02-04T08:51:12;101331.94;;;8.27;94.23
71344;BME280;59146;43.850;25.948;2024-02-04T08:53:38;101298.81;;;8.08;94.05
71344;BME280;59146;43.850;25.948;2024-02-04T08:56:07;101348.44;;;8.49;92.96
71344;BME280;59146;43.850;25.948;2024-02-04T08:58:32;101290.16;;;8.30;93.05
71344;BME280;59146;43.850;25.948;2024-02-04T09:00:58;101265.88;;;8.30;91.63
71344;BME280;59146;43.850;25.948;2024-02-04T09:03:23;101288.25;;;8.35;91.02
71344;BME280;59146;43.850;25.948;2024-02-04T09:05:49;101292.28;;;8.42;91.16
71344;BME280;59146;43.850;25.948;2024-02-04T09:08:14;101297.75;;;8.58;90.20
71344;BME280;59146;43.850;25.948;2024-02-04T09:10:41;101327.28;;;8.78;89.60
71344;BME280;59146;43.850;25.948;2024-02-04T09:13:06;101346.06;;;8.87;90.22
71344;BME280;59146;43.850;25.948;2024-02-04T09:15:32;101348.06;;;9.02;89.88
71344;BME280;59146;43.850;25.948;2024-02-04T09:17:57;101350.56;;;9.05;89.10
71344;BME280;59146;43.850;25.948;2024-02-04T09:20:23;101333.47;;;8.98;88.76
71344;BME280;59146;43.850;25.948;2024-02-04T09:22:48;101298.38;;;8.85;88.80
71344;BME280;59146;43.850;25.948;2024-02-04T09:25:14;101348.94;;;9.22;88.46
71344;BME280;59146;43.850;25.948;2024-02-04T09:27:40;101286.19;;;9.07;87.46
71344;BME280;59146;43.850;25.948;2024-02-04T09:30:06;101323.97;;;9.17;86.78
71344;BME280;59146;43.850;25.948;2024-02-04T09:32:31;101302.44;;;8.92;87.58
71344;BME280;59146;43.850;25.948;2024-02-04T09:34:57;101331.91;;;8.94;88.59
71344;BME280;59146;43.850;25.948;2024-02-04T09:37:24;101342.75;;;9.05;88.49
71344;BME280;59146;43.850;25.948;2024-02-04T09:39:49;101322.91;;;9.01;87.96
71344;BME280;59146;43.850;25.948;2024-02-04T09:42:19;101342.69;;;8.85;89.23
71344;BME280;59146;43.850;25.948;2024-02-04T09:44:49;101323.78;;;8.58;90.21
71344;BME280;59146;43.850;25.948;2024-02-04T09:47:14;101375.38;;;9.13;89.51
71344;BME280;59146;43.850;25.948;2024-02-04T09:49:40;101370.97;;;9.35;88.23
71344;BME280;59146;43.850;25.948;2024-02-04T09:52:09;101327.81;;;9.08;88.31
71344;BME280;59146;43.850;25.948;2024-02-04T09:54:47;101307.59;;;8.71;88.58
71344;BME280;59146;43.850;25.948;2024-02-04T09:57:13;101285.09;;;8.49;89.04
71344;BME280;59146;43.850;25.948;2024-02-04T09:59:39;101300.78;;;8.69;88.99
71344;BME280;59146;43.850;25.948;2024-02-04T10:02:05;101347.63;;;9.12;88.92
71344;BME280;59146;43.850;25.948;2024-02-04T10:04:31;101360.56;;;9.35;88.32
71344;BME280;59146;43.850;25.948;2024-02-04T10:06:56;101330.09;;;9.16;87.91
71344;BME280;59146;43.850;25.948;2024-02-04T10:09:22;101328.16;;;9.21;88.11
71344;BME280;59146;43.850;25.948;2024-02-04T10:11:47;101292.28;;;9.06;87.57
71344;BME280;59146;43.850;25.948;2024-02-04T10:14:13;101343.81;;;9.61;87.12
71344;BME280;59146;43.850;25.948;2024-02-04T10:16:40;101328.22;;;9.39;88.20
71344;BME280;59146;43.850;25.948;2024-02-04T10:19:05;101305.34;;;9.46;87.89
71344;BME280;59146;43.850;25.948;2024-02-04T10:21:31;101299.34;;;9.83;86.60
71344;BME280;59146;43.850;25.948;2024-02-04T10:23:56;101300.00;;;10.06;84.59
71344;BME280;59146;43.850;25.948;2024-02-04T10:26:22;101243.56;;;9.67;84.22
71344;BME280;59146;43.850;25.948;2024-02-04T10:28:48;101297.22;;;9.72;85.08
71344;BME280;59146;43.850;25.948;2024-02-04T10:31:14;101324.19;;;10.30;84.27
71344;BME280;59146;43.850;25.948;2024-02-04T10:33:40;101305.72;;;10.33;82.31
71344;BME280;59146;43.850;25.948;2024-02-04T10:36:06;101286.28;;;10.21;81.83
71344;BME280;59146;43.850;25.948;2024-02-04T10:38:32;101269.66;;;9.85;83.21
71344;BME280;59146;43.850;25.948;2024-02-04T10:40:59;101221.06;;;9.83;82.51
71344;BME280;59146;43.850;25.948;2024-02-04T10:43:31;101298.81;;;10.51;81.55
71344;BME280;59146;43.850;25.948;2024-02-04T10:46:01;101274.19;;;10.37;81.31
71344;BME280;59146;43.850;25.948;2024-02-04T10:48:33;101289.03;;;10.18;82.38
71344;BME280;59146;43.850;25.948;2024-02-04T10:51:14;101286.56;;;10.15;83.40
71344;BME280;59146;43.850;25.948;2024-02-04T10:53:43;101277.84;;;9.78;84.30
71344;BME280;59146;43.850;25.948;2024-02-04T10:56:14;101319.06;;;10.08;84.84
71344;BME280;59146;43.850;25.948;2024-02-04T10:58:43;101351.75;;;10.35;84.38
71344;BME280;59146;43.850;25.948;2024-02-04T11:01:10;101269.16;;;9.96;84.99
71344;BME280;59146;43.850;25.948;2024-02-04T11:03:36;101135.63;;;9.50;84.52
71344;BME280;59146;43.850;25.948;2024-02-04T11:06:02;101300.75;;;10.47;84.02
71344;BME280;59146;43.850;25.948;2024-02-04T11:08:28;101100.09;;;9.11;83.84
71344;BME280;59146;43.850;25.948;2024-02-04T11:10:53;101281.75;;;10.25;83.64
71344;BME280;59146;43.850;25.948;2024-02-04T11:13:20;101232.00;;;10.28;82.27
71344;BME280;59146;43.850;25.948;2024-02-04T11:15:48;101301.78;;;10.96;79.83
71344;BME280;59146;43.850;25.948;2024-02-04T11:25:58;101204.38;;;11.09;76.76
71344;BME280;59146;43.850;25.948;2024-02-04T11:28:25;101270.13;;;11.69;75.34
71344;BME280;59146;43.850;25.948;2024-02-04T11:30:51;101243.06;;;11.70;74.49
71344;BME280;59146;43.850;25.948;2024-02-04T11:33:19;101225.19;;;11.61;74.41
71344;BME280;59146;43.850;25.948;2024-02-04T11:35:45;101259.38;;;11.75;74.38
71344;BME280;59146;43.850;25.948;2024-02-04T11:38:10;101245.75;;;11.68;74.83
71344;BME280;59146;43.850;25.948;2024-02-04T11:40:39;101212.47;;;11.38;74.42
71344;BME280;59146;43.850;25.948;2024-02-04T11:43:11;101202.22;;;11.17;75.27
71344;BME280;59146;43.850;25.948;2024-02-04T11:45:38;101190.75;;;11.20;75.53
71344;BME280;59146;43.850;25.948;2024-02-04T11:48:07;101103.34;;;10.76;74.19
71344;BME280;59146;43.850;25.948;2024-02-04T11:50:32;101242.59;;;11.62;73.93
71344;BME280;59146;43.850;25.948;2024-02-04T11:53:13;101197.41;;;11.10;74.35
71344;BME280;59146;43.850;25.948;2024-02-04T11:55:40;101200.94;;;11.09;75.90
71344;BME280;59146;43.850;25.948;2024-02-04T11:58:06;101216.88;;;11.37;76.14
71344;BME280;59146;43.850;25.948;2024-02-04T12:00:35;101155.41;;;11.13;75.24
71344;BME280;59146;43.850;25.948;2024-02-04T12:03:04;101261.53;;;11.67;74.75
71344;BME280;59146;43.850;25.948;2024-02-04T12:05:32;101241.81;;;11.77;73.33
71344;BME280;59146;43.850;25.948;2024-02-04T12:08:04;101069.72;;;10.85;72.71
71344;BME280;59146;43.850;25.948;2024-02-04T12:10:32;101169.34;;;11.77;71.44
71344;BME280;59146;43.850;25.948;2024-02-04T12:13:03;101202.97;;;12.01;70.75
71344;BME280;59146;43.850;25.948;2024-02-04T12:15:29;101206.00;;;11.93;71.31
71344;BME280;59146;43.850;25.948;2024-02-04T12:17:55;101210.47;;;12.07;70.37
71344;BME280;59146;43.850;25.948;2024-02-04T12:20:30;101212.44;;;12.19;70.30
71344;BME280;59146;43.850;25.948;2024-02-04T12:22:55;101154.81;;;12.03;68.91
71344;BME280;59146;43.850;25.948;2024-02-04T12:25:20;101126.63;;;11.92;68.25
71344;BME280;59146;43.850;25.948;2024-02-04T12:27:46;101223.56;;;12.22;67.96
71344;BME280;59146;43.850;25.948;2024-02-04T12:30:14;101128.78;;;12.16;67.10
71344;BME280;59146;43.850;25.948;2024-02-04T12:32:39;101078.50;;;11.95;66.61
71344;BME280;59146;43.850;25.948;2024-02-04T12:35:06;101142.63;;;12.18;66.22
71344;BME280;59146;43.850;25.948;2024-02-04T12:37:31;101154.38;;;12.26;66.05
71344;BME280;59146;43.850;25.948;2024-02-04T12:39:59;101118.81;;;12.22;64.93
71344;BME280;59146;43.850;25.948;2024-02-04T12:42:25;101172.28;;;12.63;65.19
71344;BME280;59146;43.850;25.948;2024-02-04T12:44:50;101185.06;;;12.54;65.96
71344;BME280;59146;43.850;25.948;2024-02-04T12:47:20;101161.38;;;12.26;67.14
71344;BME280;59146;43.850;25.948;2024-02-04T12:49:46;101088.13;;;11.94;66.97
71344;BME280;59146;43.850;25.948;2024-02-04T12:52:11;101141.53;;;12.51;65.21
71344;BME280;59146;43.850;25.948;2024-02-04T12:54:41;101138.13;;;12.65;64.66